Time;durP1;ratioP1;P1;durP2;ratioP2;P2;SDS_P1;SDS_P2;PMS_P1;PMS_P2;Temp;Humidity;BMP_temperature;BMP_pressure;BME280_temperature;BME280_humidity;BME280_pressure;Samples;Min_cycle;Max_cycle;Signal;HPM_P1;HPM_P2
2023/02/11 00:01:20;;;;;;;17.73;4.07;;;6.90;99.90;;;;;;4953423;28;20020;-66
2023/02/11 00:03:45;;;;;;;17.13;3.00;;;6.80;99.90;;;;;;4955850;28;20067;-67
2023/02/11 00:06:11;;;;;;;22.20;3.43;;;6.80;99.90;;;;;;4955142;28;20025;-66
2023/02/11 00:08:38;;;;;;;10.40;2.70;;;6.80;99.90;;;;;;4953839;28;20124;-65
2023/02/11 00:11:04;;;;;;;17.33;2.90;;;6.80;99.90;;;;;;4953902;28;20036;-66
2023/02/11 00:13:29;;;;;;;19.25;3.60;;;6.70;99.90;;;;;;4955574;28;20028;-66
2023/02/11 00:15:55;;;;;;;15.93;2.57;;;6.60;99.90;;;;;;4956722;28;23942;-66
2023/02/11 00:18:22;;;;;;;19.03;3.63;;;6.60;99.90;;;;;;4956345;28;20027;-66
2023/02/11 00:20:47;;;;;;;18.92;3.88;;;6.60;99.90;;;;;;4939021;28;20029;-65
2023/02/11 00:23:14;;;;;;;12.40;3.22;;;6.50;99.90;;;;;;4954123;28;21105;-66
2023/02/11 00:25:41;;;;;;;20.42;3.30;;;6.50;99.90;;;;;;4958402;28;20052;-66
2023/02/11 00:28:06;;;;;;;;;;;6.40;99.90;;;;;;4959585;28;20338;-66
2023/02/11 00:30:32;;;;;;;18.08;2.63;;;6.40;99.90;;;;;;4963629;28;19963;-65
2023/02/11 00:32:58;;;;;;;15.00;3.43;;;6.40;99.90;;;;;;4961271;28;20033;-67
2023/02/11 00:35:24;;;;;;;14.20;3.13;;;6.40;99.90;;;;;;4960473;28;20485;-66
2023/02/11 00:37:52;;;;;;;15.13;3.37;;;6.30;99.90;;;;;;4959542;28;20036;-66
2023/02/11 00:40:18;;;;;;;16.00;3.00;;;6.30;99.90;;;;;;4957324;28;20047;-68
2023/02/11 00:42:43;;;;;;;31.17;3.67;;;6.30;99.90;;;;;;4960484;28;23439;-66
2023/02/11 00:45:09;;;;;;;12.60;3.40;;;6.30;99.90;;;;;;4943047;28;20322;-67
2023/02/11 00:47:35;;;;;;;16.60;3.23;;;6.30;99.90;;;;;;4961614;28;20759;-66
2023/02/11 00:50:04;;;;;;;24.63;4.43;;;6.30;99.90;;;;;;4958435;28;20032;-67
2023/02/11 00:52:30;;;;;;;24.33;3.92;;;6.20;99.90;;;;;;4962813;28;20445;-66
2023/02/11 00:54:56;;;;;;;15.98;4.05;;;6.20;99.90;;;;;;4960776;28;20117;-67
2023/02/11 00:57:22;;;;;;;11.80;3.33;;;6.20;99.90;;;;;;4958375;28;20728;-67
2023/02/11 00:59:48;;;;;;;23.63;4.23;;;6.20;99.90;;;;;;4961093;28;20959;-66
2023/02/11 01:02:14;;;;;;;16.07;3.30;;;6.20;99.90;;;;;;4958462;28;20674;-73
2023/02/11 01:04:39;;;;;;;14.90;3.83;;;6.10;99.90;;;;;;4959325;28;20159;-67
2023/02/11 01:07:05;;;;;;;22.90;4.45;;;6.00;99.90;;;;;;4960239;28;20028;-66
2023/02/11 01:09:31;;;;;;;21.17;4.30;;;6.00;99.90;;;;;;4960807;28;20439;-67
2023/02/11 01:11:56;;;;;;;19.37;4.30;;;6.00;99.90;;;;;;4961779;28;20081;-66
2023/02/11 01:14:22;;;;;;;21.42;4.03;;;5.90;99.90;;;;;;4944502;28;20026;-65
2023/02/11 01:16:48;;;;;;;11.67;3.50;;;5.90;99.90;;;;;;4959412;28;20163;-72
2023/02/11 01:19:13;;;;;;;15.50;4.40;;;5.80;99.90;;;;;;4957695;28;20063;-68
2023/02/11 01:21:39;;;;;;;17.23;4.53;;;5.80;99.90;;;;;;4956722;28;20025;-67
2023/02/11 01:24:05;;;;;;;15.87;4.77;;;5.80;99.90;;;;;;4955985;28;20045;-66
2023/02/11 01:26:31;;;;;;;19.60;5.33;;;5.80;99.90;;;;;;4926651;28;20040;-69
2023/02/11 01:28:58;;;;;;;26.87;5.23;;;5.70;99.90;;;;;;4955769;28;20032;-68
2023/02/11 01:31:24;;;;;;;18.00;4.38;;;5.80;99.90;;;;;;4959738;28;20040;-66
2023/02/11 01:33:50;;;;;;;22.30;5.23;;;5.80;99.90;;;;;;4958976;28;20034;-66
2023/02/11 01:36:15;;;;;;;26.43;4.90;;;5.80;99.90;;;;;;4959535;28;20025;-66
2023/02/11 01:38:43;;;;;;;29.20;4.67;;;5.80;99.90;;;;;;4956991;28;20074;-66
2023/02/11 01:41:11;;;;;;;21.77;4.65;;;5.80;99.90;;;;;;4957433;28;20033;-67
2023/02/11 01:43:40;;;;;;;17.58;4.10;;;5.70;99.90;;;;;;4956311;28;20126;-66
2023/02/11 01:46:24;;;;;;;21.38;4.82;;;5.70;99.90;;;;;;4957687;28;20078;-66
2023/02/11 01:48:54;;;;;;;17.70;4.82;;;5.70;99.90;;;;;;4956919;28;20035;-75
2023/02/11 01:51:25;;;;;;;21.02;4.45;;;5.60;99.90;;;;;;4957058;28;20379;-66
2023/02/11 01:59:35;;;;;;;19.85;3.85;;;5.50;99.90;;;;;;4957771;28;19962;-75
2023/02/11 02:02:07;;;;;;;17.40;5.45;;;5.50;99.90;;;;;;4956385;28;20115;-66
2023/02/11 02:04:39;;;;;;;23.73;4.93;;;5.50;99.90;;;;;;4956724;28;20025;-67
2023/02/11 02:07:10;;;;;;;21.30;5.05;;;5.40;99.90;;;;;;4957463;28;20040;-66
2023/02/11 02:09:40;;;;;;;22.50;4.63;;;5.30;99.90;;;;;;4958439;28;20033;-74
2023/02/11 02:12:06;;;;;;;17.73;4.72;;;5.30;99.90;;;;;;4956325;28;20438;-66
2023/02/11 02:14:32;;;;;;;28.10;5.47;;;5.20;99.90;;;;;;4955991;28;20075;-66
2023/02/11 02:16:58;;;;;;;13.17;4.77;;;5.10;99.90;;;;;;4956780;28;20031;-67
2023/02/11 02:20:00;;;;;;;20.30;4.83;;;5.10;99.90;;;;;;4956264;28;21869;-66
2023/02/11 02:22:51;;;;;;;21.52;4.78;;;5.10;99.90;;;;;;4956498;28;20559;-67
2023/02/11 02:25:20;;;;;;;19.08;4.25;;;5.00;99.90;;;;;;4954559;28;20047;-67
2023/02/11 02:28:33;;;;;;;20.77;5.60;;;5.00;99.90;;;;;;4960884;28;20797;-67
2023/02/11 02:31:34;;;;;;;17.67;4.97;;;4.90;99.90;;;;;;4897201;28;20057;-66
2023/02/11 02:34:02;;;;;;;21.13;4.93;;;4.90;99.90;;;;;;4867496;28;20132;-66
2023/02/11 02:36:43;;;;;;;24.45;4.88;;;5.00;99.90;;;;;;4955168;28;20027;-67
2023/02/11 02:39:23;;;;;;;28.35;4.78;;;5.10;99.90;;;;;;4957192;28;20029;-66
2023/02/11 02:41:51;;;;;;;15.68;4.90;;;5.00;99.90;;;;;;4956593;28;20426;-66
2023/02/11 02:44:18;;;;;;;23.67;4.55;;;5.10;99.90;;;;;;4958436;28;20039;-66
2023/02/11 02:46:44;;;;;;;23.38;5.68;;;5.10;99.90;;;;;;4952511;28;20032;-67
2023/02/11 02:49:15;;;;;;;24.03;5.07;;;5.20;99.90;;;;;;4957289;28;20033;-66
2023/02/11 02:52:13;;;;;;;19.00;5.55;;;5.10;99.90;;;;;;4954482;28;21099;-66
2023/02/11 02:54:47;;;;;;;18.58;5.53;;;5.10;99.90;;;;;;4937083;28;20028;-68
2023/02/11 02:57:50;;;;;;;21.35;5.97;;;5.00;99.90;;;;;;4940812;28;20032;-74
2023/02/11 03:01:01;;;;;;;18.83;5.75;;;5.00;99.90;;;;;;4954123;28;20963;-66
2023/02/11 03:03:49;;;;;;;26.50;5.47;;;5.00;99.90;;;;;;4960104;28;20035;-73
2023/02/11 03:07:03;;;;;;;32.05;5.72;;;4.90;99.90;;;;;;4940763;28;20025;-67
2023/02/11 03:09:40;;;;;;;23.25;5.80;;;4.90;99.90;;;;;;4946017;28;20037;-68
2023/02/11 03:12:07;;;;;;;19.48;5.97;;;4.80;99.90;;;;;;4955634;28;20133;-71
2023/02/11 03:14:35;;;;;;;23.88;5.80;;;4.80;99.90;;;;;;4940519;28;20031;-67
2023/02/11 03:17:03;;;;;;;24.95;6.28;;;4.80;99.90;;;;;;4953710;28;20047;-66
2023/02/11 03:19:37;;;;;;;16.45;5.80;;;4.80;99.90;;;;;;4938666;28;20512;-67
2023/02/11 03:22:07;;;;;;;27.83;6.18;;;4.70;99.90;;;;;;4954149;28;20027;-67
2023/02/11 03:24:36;;;;;;;25.60;6.35;;;4.70;99.90;;;;;;4941002;28;20040;-68
2023/02/11 03:27:26;;;;;;;14.82;6.55;;;4.70;99.90;;;;;;4957509;28;20330;-74
2023/02/11 03:30:15;;;;;;;23.38;5.82;;;4.60;99.90;;;;;;4938968;28;20297;-75
2023/02/11 03:32:49;;;;;;;25.58;6.75;;;4.60;99.90;;;;;;4952885;28;20888;-72
2023/02/11 03:35:31;;;;;;;21.10;5.93;;;4.50;99.90;;;;;;4956901;28;20079;-69
2023/02/11 03:38:03;;;;;;;18.50;5.93;;;4.50;99.90;;;;;;4953643;28;20078;-74
2023/02/11 03:40:34;;;;;;;23.20;5.95;;;4.50;99.90;;;;;;4954745;28;21060;-70
2023/02/11 03:43:31;;;;;;;18.38;6.63;;;4.40;99.90;;;;;;4956363;28;22185;-66
2023/02/11 03:45:58;;;;;;;33.58;7.40;;;4.50;99.90;;;;;;4935179;28;20047;-66
2023/02/11 03:48:35;;;;;;;33.33;7.03;;;4.50;99.90;;;;;;4954887;28;20028;-73
2023/02/11 03:51:04;;;;;;;;;;;4.60;99.90;;;;;;4954955;28;20025;-66
2023/02/11 03:53:29;;;;;;;34.72;6.63;;;4.60;99.90;;;;;;4955294;28;19928;-74
2023/02/11 03:55:59;;;;;;;21.53;7.47;;;4.70;99.90;;;;;;4956161;28;20025;-74
2023/02/11 03:58:25;;;;;;;20.17;7.05;;;4.70;99.90;;;;;;4936339;28;21636;-67
2023/02/11 04:00:51;;;;;;;27.23;7.17;;;4.80;99.90;;;;;;4950797;28;20029;-67
2023/02/11 04:03:17;;;;;;;33.33;7.77;;;4.80;99.90;;;;;;4954609;28;20071;-67
2023/02/11 04:05:43;;;;;;;22.85;7.88;;;4.90;99.90;;;;;;4954040;28;23773;-67
2023/02/11 04:08:09;;;;;;;34.30;8.43;;;4.90;99.90;;;;;;4953552;28;20078;-71
2023/02/11 04:10:35;;;;;;;29.15;7.47;;;4.90;99.90;;;;;;4954226;28;20062;-73
2023/02/11 04:13:01;;;;;;;29.40;7.27;;;5.00;99.90;;;;;;4952898;28;20032;-68
2023/02/11 04:15:27;;;;;;;30.90;8.53;;;5.00;99.90;;;;;;4953525;28;20608;-68
2023/02/11 04:17:52;;;;;;;22.07;5.87;;;5.00;99.90;;;;;;4951808;28;20103;-74
2023/02/11 04:20:18;;;;;;;39.93;7.43;;;5.00;99.90;;;;;;4955384;28;20056;-73
2023/02/11 04:22:44;;;;;;;26.07;8.27;;;5.10;99.90;;;;;;4953334;28;20056;-67
2023/02/11 04:25:10;;;;;;;33.67;7.67;;;5.10;99.90;;;;;;4937801;28;20056;-72
2023/02/11 04:27:36;;;;;;;25.83;8.20;;;5.10;99.90;;;;;;4956234;28;20734;-72
2023/02/11 04:30:05;;;;;;;22.77;7.90;;;5.10;99.90;;;;;;4955301;28;20079;-67
2023/02/11 04:32:30;;;;;;;38.67;9.82;;;5.10;99.90;;;;;;4937144;28;20036;-67
2023/02/11 04:34:56;;;;;;;31.80;10.02;;;5.20;99.90;;;;;;4953232;28;20052;-73
2023/02/11 04:37:22;;;;;;;38.77;8.80;;;5.20;99.90;;;;;;4954733;28;20032;-74
2023/02/11 04:39:47;;;;;;;35.07;8.80;;;5.20;99.90;;;;;;4954635;28;20059;-72
2023/02/11 04:42:13;;;;;;;24.37;9.07;;;5.20;99.90;;;;;;4956526;28;20035;-74
2023/02/11 04:44:39;;;;;;;42.43;8.90;;;5.20;99.90;;;;;;4935660;28;20829;-66
2023/02/11 04:47:05;;;;;;;26.10;9.37;;;5.20;99.90;;;;;;4955738;28;20079;-71
2023/02/11 04:49:30;;;;;;;34.43;9.27;;;5.20;99.90;;;;;;4954640;28;20335;-74
2023/02/11 04:51:56;;;;;;;35.63;8.97;;;5.20;99.90;;;;;;4936274;28;20037;-72
2023/02/11 04:54:22;;;;;;;27.93;8.27;;;5.20;99.90;;;;;;4953834;28;20071;-68
2023/02/11 04:56:48;;;;;;;46.93;10.70;;;5.20;99.90;;;;;;4954372;28;20029;-67
2023/02/11 04:59:14;;;;;;;31.67;7.97;;;5.30;99.90;;;;;;4951603;28;20082;-67
2023/02/11 05:01:40;;;;;;;30.60;8.77;;;5.20;99.90;;;;;;4937942;28;20810;-70
2023/02/11 05:04:06;;;;;;;27.23;8.20;;;5.30;99.90;;;;;;4954751;28;20123;-66
2023/02/11 05:06:32;;;;;;;32.67;9.23;;;5.20;99.90;;;;;;4956038;28;20033;-66
2023/02/11 05:08:57;;;;;;;36.63;9.23;;;5.20;99.90;;;;;;4954504;28;21487;-70
2023/02/11 05:11:24;;;;;;;27.43;9.60;;;5.30;99.90;;;;;;4957616;28;20116;-67
2023/02/11 05:13:50;;;;;;;;;;;5.30;99.90;;;;;;4957888;28;20033;-67
2023/02/11 05:16:16;;;;;;;28.87;9.07;;;5.30;99.90;;;;;;4956255;28;19995;-67
2023/02/11 05:18:44;;;;;;;36.40;9.65;;;5.30;99.90;;;;;;4956089;28;20035;-74
2023/02/11 05:21:13;;;;;;;34.38;9.20;;;5.30;99.90;;;;;;4957563;28;20388;-67
2023/02/11 05:23:39;;;;;;;30.58;9.38;;;5.30;99.90;;;;;;4958481;28;20078;-67
2023/02/11 05:26:05;;;;;;;38.70;10.35;;;5.30;99.90;;;;;;4959043;28;20060;-66
2023/02/11 05:28:31;;;;;;;32.70;10.13;;;5.40;99.90;;;;;;4960054;28;20025;-71
2023/02/11 05:30:57;;;;;;;34.15;9.20;;;5.40;99.90;;;;;;4923333;28;20029;-67
2023/02/11 05:33:24;;;;;;;41.15;10.90;;;5.40;99.90;;;;;;4941570;28;21609;-67
2023/02/11 05:35:50;;;;;;;36.03;10.00;;;5.40;99.90;;;;;;4956699;28;20021;-75
2023/02/11 05:38:16;;;;;;;18.83;6.60;;;5.40;99.90;;;;;;4959596;28;20047;-68
2023/02/11 05:40:43;;;;;;;44.50;11.77;;;5.40;99.90;;;;;;4973028;28;20963;-67
2023/02/11 05:43:09;;;;;;;;;;;5.40;99.90;;;;;;4940889;28;20029;-67
2023/02/11 05:45:34;;;;;;;36.87;9.70;;;5.50;99.90;;;;;;4956861;28;20002;-67
2023/02/11 05:48:00;;;;;;;33.63;10.73;;;5.50;99.90;;;;;;4956611;28;20025;-68
2023/02/11 05:50:26;;;;;;;41.10;11.20;;;5.50;99.90;;;;;;4959436;28;20028;-69
2023/02/11 05:52:52;;;;;;;38.23;12.33;;;5.60;99.90;;;;;;4957451;28;21265;-66
2023/02/11 05:55:17;;;;;;;34.00;11.27;;;5.60;99.90;;;;;;4957148;28;20013;-68
2023/02/11 05:57:43;;;;;;;32.23;11.67;;;5.60;99.90;;;;;;4956625;28;20048;-67
2023/02/11 06:00:09;;;;;;;41.00;11.83;;;5.60;99.90;;;;;;4956397;28;20782;-70
2023/02/11 06:02:35;;;;;;;35.42;11.20;;;5.60;99.90;;;;;;4956385;28;20029;-68
2023/02/11 06:05:01;;;;;;;28.87;11.20;;;5.60;99.90;;;;;;4957136;28;20040;-71
2023/02/11 06:07:26;;;;;;;39.60;12.83;;;5.60;99.90;;;;;;4943118;28;20109;-73
2023/02/11 06:09:52;;;;;;;57.70;12.67;;;5.60;99.90;;;;;;4955707;28;20039;-74
2023/02/11 06:12:18;;;;;;;46.10;14.07;;;5.60;99.90;;;;;;4954892;28;20450;-74
2023/02/11 06:14:43;;;;;;;41.63;12.23;;;5.70;99.90;;;;;;4936852;28;20656;-68
2023/02/11 06:17:09;;;;;;;43.57;12.53;;;5.70;99.90;;;;;;4955108;28;20063;-68
2023/02/11 06:19:35;;;;;;;40.20;13.80;;;5.70;99.90;;;;;;4937256;28;20639;-73
2023/02/11 06:22:01;;;;;;;47.40;13.73;;;5.80;99.90;;;;;;4957418;28;20112;-67
2023/02/11 06:24:26;;;;;;;46.65;13.75;;;5.80;99.90;;;;;;4956414;28;20046;-67
2023/02/11 06:26:52;;;;;;;46.17;13.90;;;5.80;99.90;;;;;;4957755;28;23555;-69
2023/02/11 06:29:18;;;;;;;49.10;14.37;;;5.80;99.90;;;;;;4957332;28;20643;-75
2023/02/11 06:31:43;;;;;;;43.27;14.03;;;5.80;99.90;;;;;;4955626;28;20040;-74
2023/02/11 06:34:09;;;;;;;48.57;14.87;;;5.90;99.90;;;;;;4941312;28;24105;-68
2023/02/11 06:36:37;;;;;;;46.90;15.45;;;5.90;99.90;;;;;;4956919;28;20040;-68
2023/02/11 06:39:04;;;;;;;41.38;13.52;;;5.90;99.90;;;;;;4956231;28;20036;-67
2023/02/11 06:41:30;;;;;;;46.80;14.50;;;5.90;99.90;;;;;;4956170;28;20031;-74
2023/02/11 06:43:55;;;;;;;45.90;14.37;;;5.90;99.90;;;;;;4939296;28;20029;-74
2023/02/11 06:46:21;;;;;;;42.97;13.97;;;5.90;99.90;;;;;;4957925;28;20024;-67
2023/02/11 06:48:47;;;;;;;45.57;14.47;;;5.90;99.90;;;;;;4958396;28;20060;-67
2023/02/11 06:51:14;;;;;;;48.53;14.63;;;5.90;99.90;;;;;;4955245;28;20056;-74
2023/02/11 06:53:44;;;;;;;41.85;14.85;;;5.90;99.90;;;;;;4924815;28;20052;-67
2023/02/11 06:56:14;;;;;;;44.25;14.15;;;5.90;99.90;;;;;;4954738;28;20035;-68
2023/02/11 06:58:41;;;;;;;40.70;14.77;;;6.00;99.90;;;;;;4960363;28;20100;-67
2023/02/11 07:01:09;;;;;;;56.83;16.73;;;6.00;99.90;;;;;;4960130;28;20035;-70
2023/02/11 07:03:37;;;;;;;35.85;15.77;;;6.00;99.90;;;;;;4956891;28;20104;-67
2023/02/11 07:06:05;;;;;;;50.40;15.88;;;6.00;99.90;;;;;;4954054;28;21743;-67
2023/02/11 07:08:32;;;;;;;50.70;16.30;;;6.00;99.90;;;;;;4955529;28;20028;-74
2023/02/11 07:10:58;;;;;;;45.30;15.77;;;6.10;99.90;;;;;;4955025;28;20036;-72
2023/02/11 07:13:24;;;;;;;53.57;16.77;;;6.20;99.90;;;;;;4936112;28;20028;-74
2023/02/11 07:15:49;;;;;;;48.13;16.70;;;6.10;99.90;;;;;;4956019;28;20025;-72
2023/02/11 07:18:15;;;;;;;62.73;17.30;;;6.20;99.90;;;;;;4953735;28;20027;-74
2023/02/11 07:20:41;;;;;;;52.13;15.90;;;6.10;99.90;;;;;;4956616;28;20520;-74
2023/02/11 07:23:07;;;;;;;51.37;17.40;;;6.10;99.90;;;;;;4957130;28;20048;-67
2023/02/11 07:25:35;;;;;;;44.13;15.20;;;6.10;99.90;;;;;;4956948;28;21432;-67
2023/02/11 07:28:00;;;;;;;43.53;16.10;;;6.10;99.90;;;;;;4955069;28;20044;-74
2023/02/11 07:30:26;;;;;;;46.20;16.00;;;6.10;99.90;;;;;;4957024;28;20048;-74
2023/02/11 07:32:52;;;;;;;51.87;16.33;;;6.10;99.90;;;;;;4938803;28;20130;-74
2023/02/11 07:35:18;;;;;;;51.37;17.40;;;6.10;99.90;;;;;;4955306;28;20021;-67
2023/02/11 07:37:44;;;;;;;47.63;17.13;;;6.00;99.90;;;;;;4971686;28;20312;-73
2023/02/11 07:40:10;;;;;;;45.67;16.67;;;6.00;99.90;;;;;;4956989;28;20021;-71
2023/02/11 07:42:36;;;;;;;52.05;17.50;;;6.00;99.90;;;;;;4940197;28;20029;-71
2023/02/11 07:45:02;;;;;;;51.77;16.47;;;6.00;99.90;;;;;;4939362;28;20150;-73
2023/02/11 07:47:27;;;;;;;61.47;17.70;;;6.00;99.90;;;;;;4957852;28;20028;-75
2023/02/11 07:49:54;;;;;;;51.77;18.00;;;6.00;99.90;;;;;;4958803;28;23159;-67
2023/02/11 07:52:19;;;;;;;50.53;17.35;;;6.00;99.90;;;;;;4956709;28;20032;-69
2023/02/11 07:54:47;;;;;;;52.90;18.43;;;6.00;99.90;;;;;;4957078;28;20036;-67
2023/02/11 07:57:12;;;;;;;56.20;18.02;;;6.10;99.90;;;;;;4959598;28;20016;-68
2023/02/11 07:59:38;;;;;;;63.43;19.80;;;6.10;99.90;;;;;;4959562;28;20024;-74
2023/02/11 08:02:04;;;;;;;56.33;19.03;;;6.10;99.90;;;;;;4955377;28;20031;-74
2023/02/11 08:04:29;;;;;;;51.87;17.30;;;6.20;99.90;;;;;;4957057;28;20627;-69
2023/02/11 08:06:56;;;;;;;57.83;19.10;;;6.20;99.90;;;;;;4956928;28;20321;-68
2023/02/11 08:09:22;;;;;;;52.10;18.48;;;6.20;99.90;;;;;;4956532;28;20706;-72
2023/02/11 08:11:48;;;;;;;48.10;18.20;;;6.20;99.90;;;;;;4956702;28;20037;-69
2023/02/11 08:14:14;;;;;;;60.30;20.30;;;6.30;99.90;;;;;;4955915;28;20600;-68
2023/02/11 08:16:40;;;;;;;59.63;18.53;;;6.30;99.90;;;;;;4957116;28;20623;-68
2023/02/11 08:19:11;;;;;;;56.95;19.98;;;6.40;99.90;;;;;;4955240;28;20024;-74
2023/02/11 08:21:38;;;;;;;51.38;18.55;;;6.40;99.90;;;;;;4956041;28;20996;-72
2023/02/11 08:24:05;;;;;;;56.13;18.77;;;6.40;99.90;;;;;;4938499;28;20047;-67
2023/02/11 08:26:33;;;;;;;59.92;19.13;;;6.50;99.90;;;;;;4956588;28;20899;-67
2023/02/11 08:29:00;;;;;;;60.17;18.23;;;6.50;99.90;;;;;;4937787;28;20021;-74
2023/02/11 08:31:33;;;;;;;;;;;6.60;99.90;;;;;;4958070;28;20040;-68
2023/02/11 08:33:59;;;;;;;48.60;16.17;;;6.60;99.90;;;;;;4939439;28;19916;-68
2023/02/11 08:36:27;;;;;;;55.03;17.57;;;6.60;99.90;;;;;;4957530;28;20441;-67
2023/02/11 08:38:59;;;;;;;51.03;17.42;;;6.70;99.90;;;;;;4940285;28;20535;-71
2023/02/11 08:41:26;;;;;;;50.05;18.45;;;6.70;99.90;;;;;;4958181;28;20108;-73
2023/02/11 08:43:51;;;;;;;51.35;18.63;;;6.80;99.90;;;;;;4956600;28;20108;-67
2023/02/11 08:46:18;;;;;;;56.60;18.80;;;6.80;99.90;;;;;;5012185;28;20442;-74
2023/02/11 08:48:45;;;;;;;57.17;18.17;;;6.90;99.90;;;;;;5058403;28;20036;-74
2023/02/11 08:51:17;;;;;;;55.05;18.92;;;6.90;99.90;;;;;;5055990;28;20041;-75
2023/02/11 08:53:44;;;;;;;48.05;17.17;;;7.00;99.90;;;;;;5053699;28;20029;-67
2023/02/11 08:56:11;;;;;;;51.63;17.20;;;7.00;99.90;;;;;;5049525;28;20718;-75
2023/02/11 08:58:37;;;;;;;46.10;17.65;;;7.10;99.90;;;;;;5054292;28;20035;-74
2023/02/11 09:01:18;;;;;;;49.72;17.67;;;7.10;99.90;;;;;;5036686;28;20112;-70
2023/02/11 09:03:44;;;;;;;45.55;17.52;;;7.20;99.90;;;;;;5050141;28;20033;-76
2023/02/11 09:06:11;;;;;;;49.97;15.47;;;7.20;99.90;;;;;;5053311;28;20048;-74
2023/02/11 09:08:39;;;;;;;50.72;17.55;;;7.30;99.90;;;;;;5052932;28;20036;-73
2023/02/11 09:11:05;;;;;;;49.67;18.23;;;7.30;99.90;;;;;;5053816;28;20025;-72
2023/02/11 09:13:32;;;;;;;43.35;15.18;;;7.30;99.90;;;;;;5051811;28;20044;-75
2023/02/11 09:16:00;;;;;;;60.50;15.93;;;7.40;99.90;;;;;;5037389;28;20112;-75
2023/02/11 09:18:25;;;;;;;47.30;16.08;;;7.40;99.90;;;;;;5056285;28;20306;-75
2023/02/11 09:20:51;;;;;;;55.40;17.33;;;7.40;99.90;;;;;;5038187;28;20025;-75
2023/02/11 09:23:17;;;;;;;40.40;16.87;;;7.50;99.90;;;;;;5055823;28;20021;-72
2023/02/11 09:25:42;;;;;;;37.97;15.67;;;7.50;99.90;;;;;;5035722;28;20049;-71
2023/02/11 09:28:08;;;;;;;38.22;14.75;;;7.50;99.90;;;;;;5029799;28;20029;-70
2023/02/11 09:30:37;;;;;;;38.53;15.70;;;7.60;99.90;;;;;;5027801;28;20061;-75
2023/02/11 09:33:03;;;;;;;40.88;16.13;;;7.60;99.90;;;;;;5034622;28;20274;-67
2023/02/11 09:35:29;;;;;;;34.65;14.23;;;7.70;99.90;;;;;;5027945;28;20496;-73
2023/02/11 09:37:55;;;;;;;34.87;13.87;;;7.70;99.90;;;;;;5029693;28;20117;-76
2023/02/11 09:40:21;;;;;;;32.43;14.70;;;7.80;99.90;;;;;;5030532;28;20025;-75
2023/02/11 09:43:13;;;;;;;33.88;14.05;;;7.90;99.90;;;;;;4995567;28;20083;-73
2023/02/11 09:45:39;;;;;;;28.83;12.93;;;8.00;99.90;;;;;;4941954;28;20063;-75
2023/02/11 09:48:17;;;;;;;28.17;12.90;;;8.20;99.90;;;;;;4928420;28;20959;-70
2023/02/11 09:50:56;;;;;;;24.15;11.63;;;8.30;99.90;;;;;;4927245;28;23034;-67
2023/02/11 09:53:25;;;;;;;29.95;11.93;;;8.40;99.90;;;;;;4927390;28;20103;-74
2023/02/11 09:55:58;;;;;;;30.85;13.15;;;8.50;99.90;;;;;;4928074;28;20048;-70
2023/02/11 09:58:30;;;;;;;24.67;11.45;;;8.60;99.90;;;;;;4926339;28;20462;-74
2023/02/11 10:01:12;;;;;;;28.30;10.82;;;8.70;99.90;;;;;;4926924;28;20040;-68
2023/02/11 10:03:51;;;;;;;26.25;11.25;;;8.60;99.90;;;;;;4919328;28;20079;-67
2023/02/11 10:06:26;;;;;;;24.83;10.10;;;8.70;99.90;;;;;;4921851;28;20039;-70
2023/02/11 10:08:52;;;;;;;23.88;10.88;;;8.70;99.90;;;;;;4918684;28;20051;-71
2023/02/11 10:11:25;;;;;;;22.07;11.37;;;8.70;99.90;;;;;;4919348;28;20068;-68
2023/02/11 10:14:11;;;;;;;19.27;9.45;;;8.70;99.90;;;;;;4919020;28;20060;-66
2023/02/11 10:17:11;;;;;;;25.45;10.65;;;8.70;99.90;;;;;;4923357;28;20754;-75
2023/02/11 10:19:55;;;;;;;27.50;9.85;;;8.70;99.90;;;;;;4920287;28;20037;-76
2023/02/11 10:22:36;;;;;;;21.25;9.88;;;8.70;99.90;;;;;;4922288;28;20045;-73
2023/02/11 10:25:26;;;;;;;22.25;8.65;;;8.80;99.90;;;;;;4930710;28;20408;-66
2023/02/11 10:27:55;;;;;;;18.48;8.73;;;8.80;99.90;;;;;;4938987;28;20036;-68
2023/02/11 10:30:30;;;;;;;22.48;9.82;;;8.90;99.90;;;;;;4920566;28;20028;-68
2023/02/11 10:33:01;;;;;;;22.60;9.30;;;9.00;99.90;;;;;;4923716;28;20742;-66
2023/02/11 10:35:27;;;;;;;22.77;8.73;;;9.20;99.90;;;;;;4938220;28;23234;-66
2023/02/11 10:37:54;;;;;;;12.93;7.50;;;9.20;99.90;;;;;;4941081;28;20055;-66
2023/02/11 10:40:25;;;;;;;17.23;8.80;;;9.30;99.90;;;;;;4940429;28;20030;-67
2023/02/11 10:43:01;;;;;;;17.67;8.77;;;9.50;99.90;;;;;;4939476;28;20955;-66
2023/02/11 10:45:37;;;;;;;19.42;8.07;;;9.50;99.90;;;;;;4940443;28;20128;-66
2023/02/11 10:48:05;;;;;;;15.15;8.07;;;9.60;99.90;;;;;;4939833;28;20167;-66
2023/02/11 10:50:33;;;;;;;19.73;8.35;;;9.60;99.90;;;;;;4939312;28;20116;-66
2023/02/11 10:53:19;;;;;;;20.27;8.20;;;9.60;99.90;;;;;;4940062;28;21558;-66
2023/02/11 10:55:56;;;;;;;24.13;9.43;;;9.70;99.90;;;;;;4937707;28;20052;-73
2023/02/11 10:58:33;;;;;;;16.73;8.27;;;9.70;99.90;;;;;;4939305;28;20202;-66
2023/02/11 11:00:59;;;;;;;16.27;8.90;;;9.90;99.90;;;;;;4937413;28;20619;-66
2023/02/11 11:03:30;;;;;;;17.98;8.45;;;10.10;99.90;;;;;;4937679;28;20021;-73
2023/02/11 11:05:59;;;;;;;14.43;7.10;;;10.10;99.90;;;;;;4939075;28;20930;-67
2023/02/11 11:08:41;;;;;;;18.13;8.07;;;10.20;99.90;;;;;;4941613;28;20676;-67
2023/02/11 11:11:15;;;;;;;12.73;7.68;;;10.20;99.90;;;;;;4922804;28;20025;-66
2023/02/11 11:13:53;;;;;;;14.98;8.13;;;10.10;99.90;;;;;;4939152;28;21652;-66
2023/02/11 11:16:22;;;;;;;18.83;8.05;;;10.20;99.90;;;;;;4939198;28;20025;-66
2023/02/11 11:18:51;;;;;;;15.32;7.57;;;10.20;99.90;;;;;;4952592;28;20935;-67
2023/02/11 11:21:27;;;;;;;21.48;7.45;;;10.30;99.90;;;;;;4942589;28;20055;-66
2023/02/11 11:24:02;;;;;;;17.20;6.75;;;10.40;99.90;;;;;;4944346;28;21022;-66
2023/02/11 11:26:49;;;;;;;14.23;6.45;;;10.50;99.90;;;;;;4943572;28;20028;-66
2023/02/11 11:29:25;;;;;;;11.27;6.30;;;10.50;99.90;;;;;;4941958;28;20032;-66
2023/02/11 11:31:59;;;;;;;11.85;7.13;;;10.40;99.90;;;;;;4940659;28;20454;-66
2023/02/11 11:34:31;;;;;;;15.57;7.00;;;10.40;99.90;;;;;;4943897;28;20127;-72
2023/02/11 11:36:59;;;;;;;13.57;6.88;;;10.40;99.90;;;;;;4947365;28;20132;-67
2023/02/11 11:39:32;;;;;;;11.65;6.70;;;10.40;99.90;;;;;;4946156;28;20025;-76
2023/02/11 11:42:06;;;;;;;13.70;7.40;;;10.40;99.90;;;;;;4946622;28;20027;-66
2023/02/11 11:44:37;;;;;;;11.43;5.90;;;10.40;99.90;;;;;;4945103;28;20109;-67
2023/02/11 11:47:14;;;;;;;13.77;7.15;;;10.40;99.90;;;;;;4944646;28;20029;-67
2023/02/11 11:49:49;;;;;;;14.98;6.43;;;10.30;99.90;;;;;;4942983;28;20120;-68
2023/02/11 11:52:25;;;;;;;13.45;6.55;;;10.40;99.90;;;;;;4943928;28;20867;-66
2023/02/11 11:55:01;;;;;;;15.50;6.70;;;10.30;99.90;;;;;;4943561;28;23603;-75
2023/02/11 11:57:28;;;;;;;17.52;6.95;;;10.20;99.90;;;;;;4944687;28;20314;-67
2023/02/11 11:59:56;;;;;;;10.25;6.50;;;10.20;99.90;;;;;;4944112;28;20112;-74
2023/02/11 12:02:40;;;;;;;13.23;6.35;;;10.20;99.90;;;;;;4944461;28;21509;-66
2023/02/11 12:05:33;;;;;;;12.98;5.68;;;10.40;99.90;;;;;;4940856;28;20045;-66
2023/02/11 12:08:05;;;;;;;13.68;6.05;;;10.50;99.90;;;;;;4930427;28;20334;-74
2023/02/11 12:10:39;;;;;;;11.48;6.90;;;10.60;99.90;;;;;;4942774;28;20423;-66
2023/02/11 12:13:17;;;;;;;12.88;6.95;;;10.60;99.90;;;;;;4941482;28;20584;-65
2023/02/11 12:15:58;;;;;;;10.70;6.20;;;10.70;99.90;;;;;;4941759;28;20021;-66
2023/02/11 12:18:54;;;;;;;14.38;6.20;;;10.70;99.90;;;;;;4925886;28;20365;-66
2023/02/11 12:21:34;;;;;;;14.43;6.72;;;10.70;99.90;;;;;;4947405;28;20025;-66
2023/02/11 12:24:35;;;;;;;10.52;5.75;;;10.70;99.90;;;;;;4947373;28;20046;-66
2023/02/11 12:27:13;;;;;;;11.55;6.38;;;10.80;99.90;;;;;;4869293;28;20041;-66
2023/02/11 12:30:03;;;;;;;13.73;6.57;;;10.80;99.90;;;;;;4855383;28;20125;-66
2023/02/11 12:33:04;;;;;;;16.60;6.70;;;10.80;99.90;;;;;;4878276;28;20026;-66
2023/02/11 12:35:38;;;;;;;14.60;7.03;;;11.00;99.90;;;;;;4891453;28;20043;-65
2023/02/11 12:38:17;;;;;;;12.10;6.43;;;11.10;99.90;;;;;;4875098;28;20023;-66
2023/02/11 12:43:15;;;;;;;14.10;6.63;;;11.20;99.90;;;;;;4874324;28;21179;-66
2023/02/11 12:44:31;;;;;;;13.65;5.60;;;11.20;99.90;;;;;;4873127;28;20040;-66
2023/02/11 12:47:38;;;;;;;11.90;6.13;;;11.10;99.90;;;;;;4866584;28;20764;-66
2023/02/11 12:50:34;;;;;;;14.98;6.63;;;11.00;99.90;;;;;;4873049;28;20049;-66
2023/02/11 12:53:24;;;;;;;12.13;6.07;;;11.00;99.90;;;;;;4873242;28;20034;-66
2023/02/11 12:55:56;;;;;;;14.20;6.20;;;11.10;99.90;;;;;;4874039;28;20440;-66
2023/02/11 12:58:26;;;;;;;13.38;7.18;;;11.10;99.90;;;;;;4876483;28;20081;-66
2023/02/11 13:00:57;;;;;;;14.82;6.30;;;11.10;99.90;;;;;;4901239;28;20056;-68
2023/02/11 13:03:50;;;;;;;10.20;6.40;;;11.10;99.90;;;;;;4929886;28;20028;-65
2023/02/11 13:06:39;;;;;;;15.18;6.22;;;11.10;99.90;;;;;;4891857;28;20032;-65
2023/02/11 13:09:19;;;;;;;13.38;6.30;;;11.10;99.90;;;;;;4948026;28;20403;-65